Time;durP1;ratioP1;P1;durP2;ratioP2;P2;SDS_P1;SDS_P2;PMS_P1;PMS_P2;Temp;Humidity;BMP_temperature;BMP_pressure;BME280_temperature;BME280_humidity;BME280_pressure;Samples;Min_cycle;Max_cycle;Signal;HPM_P1;HPM_P2
2023/12/20 00:00:28;;;;;;;56.30;25.02;;;;;;;3.61;78.96;100144.88;3144083;28;20048;-69
2023/12/20 00:02:00;;;;;;;61.05;25.92;;;;;;;3.72;78.96;100157.59;3144295;28;20059;-68
2023/12/20 00:03:32;;;;;;;51.38;22.08;;;;;;;3.69;79.06;100165.38;3145290;28;20048;-68
2023/12/20 00:05:03;;;;;;;46.47;20.20;;;;;;;3.69;79.07;100162.78;3146367;28;20044;-68
2023/12/20 00:06:34;;;;;;;45.78;18.48;;;;;;;3.70;79.02;100166.22;3143851;28;20053;-69
2023/12/20 00:08:06;;;;;;;34.83;16.75;;;;;;;3.69;79.00;100156.78;3144284;28;20057;-69
2023/12/20 00:09:37;;;;;;;34.90;15.68;;;;;;;3.68;79.16;100160.25;3143921;28;20863;-69
2023/12/20 00:11:08;;;;;;;36.80;16.17;;;;;;;3.68;79.09;100157.69;3143713;28;20047;-68
2023/12/20 00:12:40;;;;;;;31.63;15.75;;;;;;;3.67;79.08;100151.69;3144019;28;20116;-69
2023/12/20 00:14:11;;;;;;;33.03;16.75;;;;;;;3.28;79.11;100086.84;3143868;28;20040;-68
2023/12/20 00:15:43;;;;;;;35.45;16.08;;;;;;;3.58;79.10;100136.31;3143781;28;20109;-68
2023/12/20 00:17:15;;;;;;;34.13;15.07;;;;;;;3.67;79.14;100150.81;3143718;28;20509;-69
2023/12/20 00:18:47;;;;;;;35.20;15.98;;;;;;;3.65;79.14;100150.84;3148339;28;20159;-70
2023/12/20 00:20:18;;;;;;;36.95;14.02;;;;;;;3.65;79.11;100153.41;3143878;28;20060;-71
2023/12/20 00:21:50;;;;;;;33.15;13.98;;;;;;;3.65;79.16;100155.97;3143979;28;20059;-70
2023/12/20 00:23:23;;;;;;;32.50;14.13;;;;;;;3.64;79.15;100160.28;3143805;28;20535;-68
2023/12/20 00:24:54;;;;;;;33.38;16.17;;;;;;;3.63;79.32;100152.56;3131860;28;20567;-69
2023/12/20 00:26:26;;;;;;;32.17;14.23;;;;;;;3.63;79.25;100162.88;3143632;28;20517;-69
2023/12/20 00:27:57;;;;;;;30.05;12.65;;;;;;;3.61;79.39;100152.59;3143658;28;20040;-69
2023/12/20 00:29:28;;;;;;;34.63;12.75;;;;;;;3.59;79.39;100151.75;3143950;28;20048;-69
2023/12/20 00:31:00;;;;;;;24.67;11.63;;;;;;;3.60;79.56;100152.59;3143965;28;20432;-68
2023/12/20 00:32:32;;;;;;;25.48;12.55;;;;;;;3.59;79.60;100141.44;3143803;28;20052;-68
2023/12/20 00:34:04;;;;;;;27.42;12.75;;;;;;;3.57;79.82;100142.34;3140602;28;20131;-68
2023/12/20 00:35:35;;;;;;;28.52;11.50;;;;;;;3.53;79.80;100141.53;3143865;28;20045;-68
2023/12/20 00:37:06;;;;;;;31.45;12.52;;;;;;;3.53;79.75;100127.81;3143342;28;20688;-69
2023/12/20 00:38:37;;;;;;;26.50;11.80;;;;;;;3.53;79.94;100125.22;3143926;28;20049;-68
2023/12/20 00:40:10;;;;;;;31.75;13.65;;;;;;;3.52;80.02;100126.06;3144911;28;20435;-67
2023/12/20 00:41:41;;;;;;;25.35;12.07;;;;;;;3.50;80.07;100115.81;3146085;28;20059;-68
2023/12/20 00:43:13;;;;;;;29.67;12.93;;;;;;;3.50;80.11;100122.69;3146197;28;20036;-69
2023/12/20 00:44:44;;;;;;;28.48;13.48;;;;;;;3.50;80.00;100125.25;3145852;28;20051;-68
2023/12/20 00:46:16;;;;;;;32.60;13.90;;;;;;;3.51;80.14;100114.94;3146616;28;20079;-70
2023/12/20 00:47:48;;;;;;;28.13;12.75;;;;;;;3.26;80.11;100073.16;3150614;28;20048;-70
2023/12/20 00:49:20;;;;;;;27.70;13.65;;;;;;;3.48;80.01;100117.53;3145939;28;20052;-71
2023/12/20 00:50:50;;;;;;;28.35;12.82;;;;;;;3.46;80.10;100113.28;3145949;28;20048;-72
2023/12/20 00:52:23;;;;;;;33.08;13.75;;;;;;;3.45;80.32;100117.56;3146698;28;20045;-70
2023/12/20 00:53:54;;;;;;;29.90;13.63;;;;;;;3.44;80.22;100105.59;3146000;28;20052;-70
2023/12/20 00:55:26;;;;;;;30.23;13.77;;;;;;;3.43;80.22;100109.00;3143015;28;20041;-71
2023/12/20 00:56:58;;;;;;;25.27;13.13;;;;;;;3.41;80.24;100096.16;3143977;28;20405;-70
2023/12/20 00:58:29;;;;;;;32.08;14.60;;;;;;;3.42;80.36;100108.16;3145881;28;20052;-69
2023/12/20 01:00:00;;;;;;;32.38;14.02;;;;;;;3.43;80.36;100096.13;3145908;28;20667;-69
2023/12/20 01:01:33;;;;;;;31.55;14.40;;;;;;;3.42;80.44;100097.84;3145671;28;20040;-69
2023/12/20 01:03:05;;;;;;;28.83;14.23;;;;;;;3.42;80.44;100094.44;3150185;28;20048;-68
2023/12/20 01:04:37;;;;;;;34.65;14.50;;;;;;;3.42;80.25;100097.84;3146198;28;20139;-68
2023/12/20 01:06:07;;;;;;;34.05;12.98;;;;;;;3.36;80.34;100087.63;3145730;28;20048;-68
2023/12/20 01:07:39;;;;;;;33.20;14.55;;;;;;;3.41;80.22;100090.16;3145632;28;20040;-68
2023/12/20 01:09:10;;;;;;;29.58;14.02;;;;;;;3.40;80.32;100093.59;3146029;28;20059;-67
2023/12/20 01:10:42;;;;;;;29.27;14.30;;;;;;;3.41;80.54;100085.03;3146179;28;20587;-67
2023/12/20 01:12:12;;;;;;;32.50;13.95;;;;;;;3.40;80.32;100088.44;3145779;28;20071;-67
2023/12/20 01:13:44;;;;;;;28.83;13.32;;;;;;;3.39;80.53;100079.03;3142371;28;20447;-67
2023/12/20 01:15:15;;;;;;;37.08;14.02;;;;;;;3.35;80.60;100079.94;3146008;28;20050;-67
2023/12/20 01:16:48;;;;;;;29.80;13.43;;;;;;;2.81;80.69;99989.59;3150096;28;20103;-67
2023/12/20 01:18:20;;;;;;;30.95;13.75;;;;;;;3.35;80.51;100077.38;3146077;28;20073;-66
2023/12/20 01:19:51;;;;;;;33.83;14.07;;;;;;;3.34;80.64;100073.06;3145924;28;20052;-67
2023/12/20 01:21:23;;;;;;;31.65;13.73;;;;;;;3.35;80.67;100069.66;3145780;28;20059;-66
2023/12/20 01:22:54;;;;;;;28.25;13.30;;;;;;;3.34;80.58;100068.81;3145633;28;20052;-65
2023/12/20 01:24:26;;;;;;;30.42;13.23;;;;;;;3.35;80.53;100070.50;3145871;28;20048;-65
2023/12/20 01:25:56;;;;;;;30.58;13.98;;;;;;;3.33;80.36;100067.06;3145683;28;20501;-65
2023/12/20 01:27:28;;;;;;;30.60;14.18;;;;;;;3.32;80.53;100061.97;3145523;28;20059;-65
2023/12/20 01:28:59;;;;;;;30.20;13.70;;;;;;;3.29;80.42;100055.13;3145621;28;20055;-67
2023/12/20 01:30:31;;;;;;;27.13;13.43;;;;;;;3.29;80.50;100060.28;3145535;28;20041;-66
2023/12/20 01:32:02;;;;;;;30.80;13.65;;;;;;;3.27;80.40;100056.00;3150940;28;20060;-66
2023/12/20 01:33:35;;;;;;;30.05;12.45;;;;;;;3.27;80.44;100056.00;3145634;28;20044;-66
2023/12/20 01:35:06;;;;;;;30.90;13.18;;;;;;;3.21;80.44;100048.34;3145427;28;20045;-66
2023/12/20 01:36:38;;;;;;;30.60;14.02;;;;;;;3.21;80.42;100054.34;3145652;28;20181;-71
2023/12/20 01:38:09;;;;;;;29.85;13.23;;;;;;;3.20;80.60;100050.06;3146048;28;20048;-72
2023/12/20 01:39:41;;;;;;;28.83;13.15;;;;;;;3.20;80.53;100050.06;3145419;28;20052;-71
2023/12/20 01:41:11;;;;;;;30.65;13.75;;;;;;;3.21;80.44;100054.34;3145307;28;20040;-69
2023/12/20 01:42:43;;;;;;;30.25;13.52;;;;;;;3.21;80.49;100051.78;3145648;28;20761;-72
2023/12/20 01:44:14;;;;;;;39.00;13.38;;;;;;;3.22;80.45;100055.19;3145870;28;20525;-71
2023/12/20 01:45:46;;;;;;;38.13;14.68;;;;;;;3.21;80.38;100046.63;3147187;28;20060;-72
2023/12/20 01:47:17;;;;;;;33.92;14.25;;;;;;;3.24;80.41;100054.31;3147457;28;20670;-71
2023/12/20 01:48:50;;;;;;;34.53;14.20;;;;;;;3.25;80.44;100047.44;3145293;28;20071;-72
2023/12/20 01:50:21;;;;;;;32.92;14.00;;;;;;;3.25;80.37;100042.28;3145815;28;20052;-73
2023/12/20 01:51:53;;;;;;;30.17;13.45;;;;;;;3.25;80.24;100043.13;3144432;28;20045;-69
2023/12/20 01:53:25;;;;;;;35.10;14.50;;;;;;;3.25;80.17;100039.72;3145443;28;20048;-71
2023/12/20 01:55:02;;;;;;;30.02;13.65;;;;;;;3.24;80.19;100041.44;3145472;28;20048;-71
2023/12/20 01:56:33;;;;;;;28.13;13.20;;;;;;;3.24;80.22;100033.72;3140432;28;20127;-69
2023/12/20 01:58:06;;;;;;;28.98;13.30;;;;;;;3.25;80.34;100038.00;3145448;28;20044;-69
2023/12/20 01:59:39;;;;;;;29.13;13.35;;;;;;;3.25;80.05;100029.41;3145291;28;20059;-70
2023/12/20 02:01:12;;;;;;;34.33;13.55;;;;;;;3.24;80.19;100025.16;3149689;28;20049;-70
2023/12/20 02:02:45;;;;;;;30.75;13.55;;;;;;;3.22;80.19;100025.16;3145551;28;20049;-70
2023/12/20 02:04:18;;;;;;;31.38;12.27;;;;;;;3.22;80.08;100020.00;3145401;28;20044;-69
2023/12/20 02:05:50;;;;;;;29.88;13.43;;;;;;;3.22;80.13;100014.88;3145277;28;20127;-70
2023/12/20 02:07:22;;;;;;;28.88;12.77;;;;;;;3.22;80.19;100019.16;3145170;28;20041;-70
2023/12/20 02:08:53;;;;;;;32.30;12.73;;;;;;;3.19;80.17;100020.03;3145208;28;20048;-70
2023/12/20 02:10:26;;;;;;;29.58;13.32;;;;;;;3.20;80.21;100016.63;3145514;28;20512;-70
2023/12/20 02:11:58;;;;;;;34.53;14.30;;;;;;;3.19;80.16;100009.75;3144873;28;20136;-70
2023/12/20 02:13:28;;;;;;;32.13;12.93;;;;;;;3.18;80.15;100008.91;3139196;28;20303;-69
2023/12/20 02:15:00;;;;;;;31.58;13.23;;;;;;;3.19;80.18;100002.03;3148115;28;20044;-69
2023/12/20 02:16:31;;;;;;;31.92;13.50;;;;;;;3.17;80.15;100003.78;3146377;28;20056;-70
2023/12/20 02:18:03;;;;;;;30.98;13.40;;;;;;;3.15;80.20;100005.53;3145368;28;20450;-70
2023/12/20 02:19:35;;;;;;;31.20;14.35;;;;;;;3.15;80.20;100001.22;3145244;28;20504;-70
2023/12/20 02:21:07;;;;;;;31.15;13.98;;;;;;;3.14;80.19;100004.69;3144886;28;20044;-70
2023/12/20 02:22:39;;;;;;;29.48;13.02;;;;;;;3.12;80.14;99998.69;3145074;28;20036;-70
2023/12/20 02:24:11;;;;;;;26.17;12.70;;;;;;;3.11;80.15;100003.88;3145669;28;20063;-70
2023/12/20 02:25:42;;;;;;;30.55;12.63;;;;;;;3.09;80.22;100001.28;3145152;28;20051;-70
2023/12/20 02:27:14;;;;;;;30.42;12.77;;;;;;;3.08;80.29;99997.03;3144638;28;20445;-70
2023/12/20 02:28:45;;;;;;;25.92;12.00;;;;;;;3.05;80.30;99994.50;3144964;28;20044;-70
2023/12/20 02:30:16;;;;;;;31.55;12.60;;;;;;;2.91;80.29;99971.50;3144872;28;20053;-70
2023/12/20 02:31:47;;;;;;;25.80;11.93;;;;;;;3.04;80.27;99991.94;3145048;28;20056;-70
2023/12/20 02:33:19;;;;;;;26.45;11.80;;;;;;;3.02;80.41;100001.38;3145049;28;20441;-70
2023/12/20 02:34:50;;;;;;;24.88;11.93;;;;;;;2.99;80.35;99989.41;3144763;28;20805;-70
2023/12/20 02:36:21;;;;;;;26.00;11.50;;;;;;;2.98;80.55;99987.69;3145239;28;20049;-69
2023/12/20 02:37:53;;;;;;;27.45;12.32;;;;;;;2.99;80.20;99993.69;3145213;28;20048;-68
2023/12/20 02:39:25;;;;;;;27.77;11.73;;;;;;;2.94;80.25;99989.47;3144958;28;20049;-69
2023/12/20 02:40:57;;;;;;;25.05;12.25;;;;;;;2.94;80.32;99989.47;3144907;28;20087;-70
2023/12/20 02:42:28;;;;;;;27.58;12.63;;;;;;;2.94;80.38;99998.91;3145062;28;20048;-69
2023/12/20 02:43:59;;;;;;;24.55;10.60;;;;;;;2.90;80.35;99998.09;3145335;28;20538;-70
2023/12/20 02:45:30;;;;;;;22.42;11.13;;;;;;;2.84;80.47;99990.44;3147603;28;20440;-66
2023/12/20 02:47:02;;;;;;;25.15;11.25;;;;;;;2.80;80.68;99983.59;3144942;28;20049;-67
2023/12/20 02:48:33;;;;;;;22.90;11.32;;;;;;;2.81;80.71;99981.88;3144995;28;20055;-67
2023/12/20 02:50:05;;;;;;;25.48;10.68;;;;;;;2.79;80.61;99979.34;3144976;28;20040;-67
2023/12/20 02:51:38;;;;;;;25.98;12.30;;;;;;;2.79;80.67;99976.78;3144635;28;20064;-66
2023/12/20 02:53:11;;;;;;;24.95;11.18;;;;;;;2.75;80.65;99967.38;3145021;28;20056;-67
2023/12/20 02:54:41;;;;;;;25.55;11.55;;;;;;;2.71;80.63;99966.56;3144695;28;20047;-68
2023/12/20 02:56:14;;;;;;;25.80;11.63;;;;;;;2.72;80.74;99967.41;3139722;28;20432;-68
2023/12/20 02:57:45;;;;;;;25.47;11.27;;;;;;;2.69;80.81;99970.00;3144580;28;20050;-67
2023/12/20 02:59:16;;;;;;;25.20;11.45;;;;;;;2.70;80.72;99970.00;3148769;28;21170;-67
2023/12/20 03:00:47;;;;;;;25.27;11.15;;;;;;;2.70;80.70;99964.84;3144511;28;20516;-67
2023/12/20 03:02:19;;;;;;;22.15;10.88;;;;;;;2.66;80.76;99965.78;3144742;28;20051;-72
2023/12/20 03:03:50;;;;;;;26.90;11.20;;;;;;;2.67;80.70;99971.75;3144214;28;20762;-71
2023/12/20 03:05:22;;;;;;;28.48;12.25;;;;;;;2.65;80.85;99979.47;3144917;28;20052;-71
2023/12/20 03:06:52;;;;;;;29.35;12.55;;;;;;;2.60;80.89;99963.22;3144385;28;20060;-67
2023/12/20 03:08:25;;;;;;;28.15;11.75;;;;;;;2.59;80.88;99958.13;3144677;28;20052;-67
2023/12/20 03:09:56;;;;;;;28.70;11.82;;;;;;;2.56;81.00;99958.16;3144294;28;20048;-68
2023/12/20 03:11:28;;;;;;;25.60;11.73;;;;;;;2.56;81.00;99958.16;3144275;28;20468;-68
2023/12/20 03:12:59;;;;;;;28.38;13.35;;;;;;;2.57;81.04;99959.84;3142019;28;20509;-68
2023/12/20 03:14:31;;;;;;;30.75;13.15;;;;;;;2.59;80.94;99958.97;3145209;28;20048;-68
2023/12/20 03:16:08;;;;;;;27.77;12.45;;;;;;;2.61;80.89;99961.53;3144526;28;20441;-67
2023/12/20 03:17:40;;;;;;;27.95;11.25;;;;;;;2.59;80.92;99960.69;3144553;28;20131;-68
2023/12/20 03:19:11;;;;;;;31.73;13.10;;;;;;;2.59;81.03;99958.13;3144519;28;20079;-68
2023/12/20 03:20:42;;;;;;;28.20;12.18;;;;;;;2.59;80.94;99963.25;3144255;28;20052;-67
2023/12/20 03:22:13;;;;;;;25.35;12.73;;;;;;;2.57;81.02;99965.84;3144891;28;20421;-67
2023/12/20 03:23:46;;;;;;;27.55;12.68;;;;;;;2.58;81.01;99956.44;3144635;28;20044;-67
2023/12/20 03:25:18;;;;;;;25.08;12.60;;;;;;;2.54;80.93;99955.59;3144284;28;20036;-67
2023/12/20 03:26:49;;;;;;;26.05;11.70;;;;;;;2.56;81.15;99956.44;3142616;28;20056;-66
2023/12/20 03:28:21;;;;;;;26.50;11.95;;;;;;;2.56;81.00;99948.72;3149008;28;20051;-67
2023/12/20 03:29:51;;;;;;;29.38;11.48;;;;;;;2.58;81.09;99946.16;3144346;28;20437;-67
2023/12/20 03:31:23;;;;;;;24.48;11.57;;;;;;;2.57;80.99;99954.69;3144615;28;20045;-67
2023/12/20 03:32:54;;;;;;;22.15;10.02;;;;;;;2.54;81.10;99945.31;3144554;28;20045;-69
2023/12/20 03:34:26;;;;;;;19.80;9.60;;;;;;;2.55;81.24;99951.31;3144875;28;20041;-67
2023/12/20 03:35:56;;;;;;;20.35;9.55;;;;;;;2.55;81.13;99949.59;3144302;28;20049;-67
2023/12/20 03:37:29;;;;;;;25.23;10.48;;;;;;;2.55;81.19;99943.59;3144391;28;20044;-67
2023/12/20 03:39:01;;;;;;;23.75;10.70;;;;;;;2.56;81.17;99942.72;3144531;28;20055;-67
2023/12/20 03:40:33;;;;;;;25.55;9.95;;;;;;;2.55;81.16;99944.44;3144431;28;20071;-67
2023/12/20 03:42:04;;;;;;;27.00;11.45;;;;;;;2.57;81.05;99939.28;3144168;28;20051;-67
2023/12/20 03:43:36;;;;;;;23.45;11.32;;;;;;;2.55;81.14;99936.75;3149498;28;20040;-67
2023/12/20 03:45:07;;;;;;;25.23;10.55;;;;;;;2.55;80.97;99934.16;3144369;28;20071;-67
2023/12/20 03:46:39;;;;;;;31.20;11.20;;;;;;;2.58;81.03;99943.56;3144460;28;20607;-67
2023/12/20 03:48:10;;;;;;;25.02;10.88;;;;;;;2.58;81.05;99938.44;3144537;28;20051;-67
2023/12/20 03:49:42;;;;;;;21.73;10.52;;;;;;;2.58;80.97;99935.88;3143864;28;20468;-68
2023/12/20 03:51:12;;;;;;;24.10;11.32;;;;;;;2.57;80.99;99934.97;3144443;28;20051;-68
2023/12/20 03:52:44;;;;;;;22.23;10.73;;;;;;;2.56;80.99;99943.56;3144189;28;20051;-68
2023/12/20 03:54:16;;;;;;;23.98;9.80;;;;;;;2.56;80.97;99947.88;3144083;28;20056;-68
2023/12/20 03:55:48;;;;;;;23.10;10.88;;;;;;;2.54;80.95;99947.03;3138784;28;20466;-68
2023/12/20 03:57:19;;;;;;;22.75;9.85;;;;;;;2.51;80.99;99945.34;3147689;28;20044;-67
2023/12/20 03:58:51;;;;;;;19.17;8.77;;;;;;;2.52;80.92;99948.78;3143938;28;20066;-68
2023/12/20 04:00:21;;;;;;;23.02;8.98;;;;;;;2.50;80.93;99949.63;3144418;28;20045;-68
2023/12/20 04:01:53;;;;;;;20.10;9.65;;;;;;;2.49;81.01;99947.94;3144204;28;20059;-67
2023/12/20 04:03:24;;;;;;;22.45;9.57;;;;;;;2.50;81.05;99938.50;3144177;28;20408;-70
2023/12/20 04:04:56;;;;;;;24.83;10.05;;;;;;;2.48;80.89;99943.66;3144150;28;20048;-70
2023/12/20 04:06:27;;;;;;;21.77;10.45;;;;;;;2.46;81.03;99950.53;3143972;28;20048;-70
2023/12/20 04:07:59;;;;;;;21.40;10.32;;;;;;;2.45;81.14;99937.69;3144293;28;20056;-70
2023/12/20 04:09:31;;;;;;;21.00;10.07;;;;;;;2.45;81.31;99935.97;3144082;28;20417;-70
2023/12/20 04:11:03;;;;;;;22.27;10.77;;;;;;;2.45;81.30;99929.97;3144016;28;20071;-70
2023/12/20 04:12:34;;;;;;;20.00;10.68;;;;;;;2.44;81.14;99923.13;3147480;28;20493;-70
2023/12/20 04:14:07;;;;;;;24.77;11.05;;;;;;;2.47;81.08;99933.38;3141189;28;20052;-70
2023/12/20 04:15:38;;;;;;;18.85;10.23;;;;;;;2.46;81.25;99929.97;3145967;28;20044;-69
2023/12/20 04:17:10;;;;;;;23.98;10.70;;;;;;;2.46;81.09;99932.53;3137609;28;20048;-69
2023/12/20 04:18:41;;;;;;;22.00;10.27;;;;;;;2.45;81.05;99930.81;3146513;28;20048;-69
2023/12/20 04:20:12;;;;;;;20.60;10.43;;;;;;;2.45;81.10;99935.97;3147008;28;20044;-70
2023/12/20 04:21:44;;;;;;;22.02;10.40;;;;;;;2.39;81.38;99918.03;3146975;28;20048;-75
2023/12/20 04:23:15;;;;;;;25.90;10.23;;;;;;;2.46;81.21;99939.41;3146548;28;20060;-74
2023/12/20 04:24:48;;;;;;;22.48;10.60;;;;;;;2.44;81.17;99931.69;3146762;28;20508;-74
2023/12/20 04:26:19;;;;;;;22.48;10.40;;;;;;;2.42;81.25;99925.72;3147340;28;20040;-69
2023/12/20 04:27:50;;;;;;;23.42;11.23;;;;;;;2.43;81.20;99924.00;3146268;28;20521;-68
2023/12/20 04:29:21;;;;;;;25.50;10.85;;;;;;;2.33;81.23;99915.53;3146415;28;20059;-69
2023/12/20 04:30:53;;;;;;;23.55;10.75;;;;;;;2.41;81.17;99934.28;3146344;28;20052;-70
2023/12/20 04:32:24;;;;;;;24.90;12.18;;;;;;;2.42;81.39;99924.88;3146604;28;20056;-69
2023/12/20 04:33:55;;;;;;;24.00;11.45;;;;;;;2.38;81.38;99921.47;3146467;28;20441;-72
2023/12/20 04:35:26;;;;;;;23.45;11.77;;;;;;;2.41;81.21;99931.72;3146263;28;20473;-68
2023/12/20 04:36:58;;;;;;;21.67;11.48;;;;;;;2.41;81.29;99923.16;3146682;28;20052;-68
2023/12/20 04:38:30;;;;;;;26.10;12.10;;;;;;;2.42;81.25;99924.88;3146528;28;20433;-70
2023/12/20 04:40:02;;;;;;;26.10;12.65;;;;;;;2.41;81.27;99926.59;3146629;28;20044;-70
2023/12/20 04:41:34;;;;;;;29.60;12.73;;;;;;;2.38;81.25;99920.63;3150240;28;20139;-69
2023/12/20 04:43:05;;;;;;;20.75;11.45;;;;;;;2.37;81.29;99917.22;3146148;28;20063;-67
2023/12/20 04:44:37;;;;;;;26.95;13.27;;;;;;;2.37;81.22;99914.66;3146149;28;20532;-66
2023/12/20 04:46:07;;;;;;;30.40;14.23;;;;;;;2.37;81.35;99911.22;3146284;28;20053;-67
2023/12/20 04:47:39;;;;;;;30.52;12.45;;;;;;;2.37;81.20;99912.06;3146290;28;20053;-67
2023/12/20 04:49:10;;;;;;;24.40;12.65;;;;;;;2.36;81.22;99905.22;3146273;28;20040;-66
2023/12/20 04:50:42;;;;;;;22.88;12.50;;;;;;;2.36;81.21;99905.22;3146010;28;20400;-68
2023/12/20 04:52:14;;;;;;;26.73;12.65;;;;;;;2.35;81.16;99908.66;3146130;28;20045;-67
2023/12/20 04:53:46;;;;;;;25.77;12.82;;;;;;;2.35;81.16;99912.94;3146471;28;20052;-69
2023/12/20 04:55:19;;;;;;;31.67;13.75;;;;;;;2.34;81.21;99904.41;3145859;28;20258;-69
2023/12/20 04:56:50;;;;;;;34.30;14.75;;;;;;;2.34;81.20;99903.53;3149284;28;20048;-68
2023/12/20 04:58:22;;;;;;;27.35;12.65;;;;;;;2.33;81.12;99902.66;3146453;28;20045;-66
2023/12/20 04:59:53;;;;;;;27.02;13.23;;;;;;;2.31;81.04;99898.41;3133874;28;20102;-67
2023/12/20 05:01:25;;;;;;;27.85;13.25;;;;;;;2.32;81.11;99913.00;3145121;28;20125;-65
2023/12/20 05:02:55;;;;;;;26.30;13.25;;;;;;;2.30;81.19;99910.41;3145587;28;20148;-65
2023/12/20 05:04:27;;;;;;;31.52;14.18;;;;;;;2.27;81.23;99903.59;3146213;28;20066;-66
2023/12/20 05:05:58;;;;;;;27.40;12.57;;;;;;;2.28;81.16;99905.31;3145395;28;20059;-66
2023/12/20 05:07:30;;;;;;;24.17;12.82;;;;;;;1.94;81.14;99850.81;3146361;28;20044;-67
2023/12/20 05:09:01;;;;;;;30.77;13.98;;;;;;;2.28;81.24;99896.75;3145877;28;20060;-69
2023/12/20 05:10:35;;;;;;;39.58;14.18;;;;;;;2.27;81.14;99897.59;3146047;28;20051;-63
2023/12/20 05:12:06;;;;;;;60.10;25.30;;;;;;;2.27;81.33;99892.47;3148019;28;20465;-67
2023/12/20 05:13:38;;;;;;;74.38;32.90;;;;;;;2.27;81.39;99897.59;3142820;28;20075;-64
2023/12/20 05:15:09;;;;;;;38.08;17.70;;;;;;;2.30;81.30;99897.56;3142295;28;20059;-66
2023/12/20 05:16:41;;;;;;;28.45;14.43;;;;;;;2.31;81.27;99895.84;3145758;28;20071;-68
2023/12/20 05:18:12;;;;;;;33.58;14.60;;;;;;;1.55;81.12;99770.72;3144243;28;20056;-62
2023/12/20 05:19:44;;;;;;;33.55;14.68;;;;;;;2.28;81.15;99886.47;3137193;28;20102;-64
2023/12/20 05:21:15;;;;;;;37.17;16.15;;;;;;;2.28;81.25;99886.47;3145698;28;20052;-68
2023/12/20 05:22:47;;;;;;;34.38;15.40;;;;;;;1.91;81.30;99822.59;3146141;28;20055;-67
2023/12/20 05:24:18;;;;;;;88.00;39.50;;;;;;;2.26;81.44;99886.47;3146421;28;20049;-67
2023/12/20 05:25:51;;;;;;;100.13;45.47;;;;;;;2.30;81.45;99887.28;3145748;28;20055;-69
2023/12/20 05:27:22;;;;;;;42.53;18.92;;;;;;;2.32;81.50;99880.41;3145694;28;20040;-70
2023/12/20 05:28:53;;;;;;;38.92;17.58;;;;;;;2.38;81.36;99889.78;3145527;28;20048;-72
2023/12/20 05:30:26;;;;;;;31.70;15.68;;;;;;;1.90;81.19;99799.50;3145733;28;20425;-70
2023/12/20 05:31:58;;;;;;;29.38;13.65;;;;;;;2.34;81.16;99878.69;3145512;28;20080;-68
2023/12/20 05:33:30;;;;;;;27.35;14.23;;;;;;;2.30;81.29;99876.16;3145584;28;20040;-74
2023/12/20 05:35:03;;;;;;;31.63;14.98;;;;;;;2.30;81.27;99874.44;3145454;28;20048;-70
2023/12/20 05:36:34;;;;;;;28.70;13.82;;;;;;;2.29;81.36;99872.75;3145916;28;20052;-71
2023/12/20 05:38:05;;;;;;;29.15;14.50;;;;;;;2.27;81.28;99872.75;3145998;28;20068;-69
2023/12/20 05:39:37;;;;;;;34.83;15.63;;;;;;;2.26;81.19;99871.06;3145199;28;20047;-69
2023/12/20 05:41:09;;;;;;;139.85;57.55;;;;;;;2.28;81.26;99863.34;3138846;28;20049;-66
2023/12/20 05:42:41;;;;;;;54.83;26.63;;;;;;;2.29;81.35;99865.03;3145243;28;20592;-68
2023/12/20 05:44:12;;;;;;;48.53;21.88;;;;;;;2.31;81.33;99868.44;3145870;28;20526;-68
2023/12/20 05:45:47;;;;;;;33.13;15.75;;;;;;;2.32;81.12;99867.56;3144797;28;20043;-65
2023/12/20 05:47:18;;;;;;;32.17;15.30;;;;;;;2.31;81.16;99862.44;3145458;28;20044;-64
2023/12/20 05:48:51;;;;;;;33.33;16.58;;;;;;;2.29;81.20;99854.75;3145348;28;20049;-64
2023/12/20 05:50:22;;;;;;;33.90;16.38;;;;;;;2.21;81.22;99847.13;3145583;28;20621;-65
2023/12/20 05:51:54;;;;;;;32.85;16.23;;;;;;;2.28;81.11;99860.78;3145050;28;20044;-65
2023/12/20 05:53:25;;;;;;;31.80;15.88;;;;;;;2.25;80.98;99858.25;3145782;28;20056;-68
2023/12/20 05:54:57;;;;;;;33.90;16.25;;;;;;;2.27;81.04;99861.63;3145414;28;20166;-67
2023/12/20 05:56:31;;;;;;;28.27;14.38;;;;;;;2.23;81.01;99852.25;3141182;28;20445;-66
2023/12/20 05:58:03;;;;;;;30.52;14.75;;;;;;;2.22;81.13;99853.97;3145502;28;20060;-66
2023/12/20 05:59:35;;;;;;;31.38;15.48;;;;;;;2.22;81.13;99855.72;3145233;28;20172;-65
2023/12/20 06:01:07;;;;;;;35.83;15.48;;;;;;;2.21;81.11;99859.13;3145183;28;20051;-68
2023/12/20 06:02:39;;;;;;;32.30;15.02;;;;;;;2.18;81.13;99854.00;3145692;28;20067;-70
2023/12/20 06:04:10;;;;;;;30.15;14.85;;;;;;;2.17;81.12;99848.03;3145367;28;20048;-68
2023/12/20 06:05:42;;;;;;;30.63;14.23;;;;;;;2.19;81.12;99854.00;3144988;28;20134;-69
2023/12/20 06:07:15;;;;;;;28.77;14.52;;;;;;;2.19;81.12;99850.56;3145150;28;20515;-69
2023/12/20 06:08:47;;;;;;;29.73;15.18;;;;;;;2.18;81.27;99851.44;3145526;28;20128;-68
2023/12/20 06:10:18;;;;;;;30.30;15.30;;;;;;;2.17;81.25;99844.63;3145485;28;20437;-68
2023/12/20 06:11:52;;;;;;;32.65;15.65;;;;;;;2.18;81.29;99846.31;3147213;28;20040;-67
2023/12/20 06:13:22;;;;;;;31.58;16.33;;;;;;;2.12;81.28;99843.81;3141853;28;20509;-68
2023/12/20 06:14:54;;;;;;;30.33;15.85;;;;;;;2.17;81.27;99852.31;3144915;28;20048;-69
2023/12/20 06:16:25;;;;;;;34.65;15.95;;;;;;;2.17;81.24;99847.19;3139440;28;20059;-70
2023/12/20 06:17:57;;;;;;;35.72;15.73;;;;;;;2.22;81.32;99855.72;3145359;28;20070;-78
2023/12/20 06:19:30;;;;;;;33.50;15.23;;;;;;;1.81;81.35;99790.19;3146781;28;20044;-73
2023/12/20 06:21:02;;;;;;;34.70;15.43;;;;;;;2.24;81.43;99856.50;3145513;28;20560;-71
2023/12/20 06:22:34;;;;;;;34.92;15.43;;;;;;;2.26;81.67;99852.22;3145333;28;20127;-70
2023/12/20 06:24:05;;;;;;;29.55;14.43;;;;;;;2.31;81.63;99852.16;3146311;28;20448;-70
2023/12/20 06:25:38;;;;;;;28.55;14.45;;;;;;;2.35;81.77;99846.13;3145945;28;20429;-72
2023/12/20 06:27:10;;;;;;;29.80;14.77;;;;;;;2.41;81.60;99844.34;3147504;28;20452;-71
2023/12/20 06:28:42;;;;;;;28.58;14.70;;;;;;;2.43;81.66;99842.63;3145114;28;20052;-69
2023/12/20 06:30:13;;;;;;;32.75;16.20;;;;;;;2.50;81.61;99841.66;3145306;28;20079;-75
2023/12/20 06:31:45;;;;;;;30.75;14.93;;;;;;;2.52;81.67;99833.94;3146481;28;20044;-74
2023/12/20 06:33:16;;;;;;;30.83;14.82;;;;;;;2.63;81.50;99831.22;3146522;28;20089;-74
2023/12/20 06:34:48;;;;;;;28.92;14.55;;;;;;;2.75;81.39;99836.22;3145724;28;20186;-68
2023/12/20 06:36:19;;;;;;;30.50;14.45;;;;;;;2.82;81.04;99843.00;3145711;28;20048;-70
2023/12/20 06:37:52;;;;;;;32.55;14.75;;;;;;;2.88;80.84;99842.91;3144898;28;20060;-69
2023/12/20 06:39:23;;;;;;;30.55;14.35;;;;;;;2.90;80.84;99838.63;3144530;28;20094;-76
2023/12/20 06:40:57;;;;;;;27.00;14.88;;;;;;;2.97;80.53;99842.78;3144718;28;20064;-71
2023/12/20 06:42:29;;;;;;;29.67;14.32;;;;;;;3.05;80.41;99849.56;3143469;28;20135;-71
2023/12/20 06:44:01;;;;;;;30.52;14.73;;;;;;;3.07;80.26;99856.38;3144066;28;20517;-78
2023/12/20 06:45:33;;;;;;;31.50;14.77;;;;;;;3.10;80.10;99847.75;3144046;28;20066;-79
2023/12/20 06:47:05;;;;;;;27.02;13.32;;;;;;;2.44;80.04;99725.22;3143101;28;20052;-72
2023/12/20 06:48:36;;;;;;;30.17;14.23;;;;;;;3.26;79.84;99848.41;3143769;28;20048;-75
2023/12/20 06:50:09;;;;;;;28.10;13.82;;;;;;;3.32;79.62;99846.59;3143537;28;20076;-68
2023/12/20 06:51:40;;;;;;;28.67;13.93;;;;;;;3.34;79.20;99844.84;3143802;28;20109;-63
2023/12/20 06:53:12;;;;;;;29.08;13.43;;;;;;;3.37;79.11;99842.22;3143745;28;20484;-62
2023/12/20 06:54:43;;;;;;;27.58;12.90;;;;;;;3.40;78.85;99839.63;3143943;28;20117;-63
2023/12/20 06:56:16;;;;;;;29.00;12.73;;;;;;;3.31;78.87;99810.56;3143481;28;20074;-62
2023/12/20 06:57:49;;;;;;;29.73;13.93;;;;;;;2.90;78.88;99732.31;3140561;28;20553;-65
2023/12/20 06:59:20;;;;;;;26.73;14.20;;;;;;;3.59;78.59;99836.75;3140187;28;20091;-63
2023/12/20 07:00:52;;;;;;;26.98;13.40;;;;;;;3.69;78.35;99837.44;3143893;28;20052;-62
2023/12/20 07:02:24;;;;;;;29.92;13.30;;;;;;;3.77;78.03;99835.59;3144522;28;20056;-63
2023/12/20 07:03:54;;;;;;;27.27;14.15;;;;;;;3.85;77.87;99833.75;3144334;28;20128;-62